Time,TemperatureF,DewpointF,PressureIn,WindDirection,WindDirectionDegrees,WindSpeedMPH,WindSpeedGustMPH,Humidity,HourlyPrecipIn,Conditions,Clouds,dailyrainin,SolarRadiationWatts/m^2,SoftwareType,DateUTC
2013-10-31 00:04:00,48.2,42.0,30.12,West,269,1.0,2.0,78,0.00,,,0.00,0,weatherlink.com 1.10,2013-10-31 07:04:00,
2013-10-31 00:19:00,47.3,41.0,30.12,West,269,0.0,2.0,79,0.00,,,0.00,0,weatherlink.com 1.10,2013-10-31 07:19:00,
2013-10-31 00:34:00,47.3,41.0,30.12,West,269,0.0,1.0,78,0.00,,,0.00,0,weatherlink.com 1.10,2013-10-31 07:34:00,
2013-10-31 00:49:00,46.8,41.0,30.12,West,269,0.0,2.0,80,0.00,,,0.00,0,weatherlink.com 1.10,2013-10-31 07:49:00,
2013-10-31 01:19:00,46.0,41.0,30.12,West,269,1.0,2.0,82,0.00,,,0.00,0,weatherlink.com 1.10,2013-10-31 08:19:00,
2013-10-31 01:34:00,46.0,41.0,30.12,West,269,2.0,2.0,82,0.00,,,0.00,0,weatherlink.com 1.10,2013-10-31 08:34:00,
2013-10-31 01:49:00,46.4,40.0,30.13,West,269,0.0,2.0,79,0.00,,,0.00,0,weatherlink.com 1.10,2013-10-31 08:49:00,
2013-10-31 02:19:00,46.0,41.0,30.13,West,269,2.0,2.0,81,0.00,,,0.00,0,weatherlink.com 1.10,2013-10-31 09:19:00,
2013-10-31 02:34:00,45.8,40.0,30.13,West,269,1.0,2.0,81,0.00,,,0.00,0,weatherlink.com 1.10,2013-10-31 09:34:00,
2013-10-31 02:49:00,45.7,40.0,30.13,West,269,0.0,2.0,80,0.00,,,0.00,0,weatherlink.com 1.10,2013-10-31 09:49:00,
2013-10-31 03:04:00,45.3,40.0,30.13,West,269,1.0,3.0,81,0.00,,,0.00,0,weatherlink.com 1.10,2013-10-31 10:04:00,
2013-10-31 03:19:00,45.5,40.0,30.13,West,269,1.0,1.0,81,0.00,,,0.00,0,weatherlink.com 1.10,2013-10-31 10:19:00,
2013-10-31 03:34:00,45.4,40.0,30.13,West,269,1.0,2.0,82,0.00,,,0.00,0,weatherlink.com 1.10,2013-10-31 10:34:00,
2013-10-31 03:49:00,45.5,40.0,30.13,West,269,2.0,2.0,82,0.00,,,0.00,0,weatherlink.com 1.10,2013-10-31 10:49:00,
2013-10-31 04:04:00,45.2,40.0,30.13,West,269,0.0,2.0,82,0.00,,,0.00,0,weatherlink.com 1.10,2013-10-31 11:04:00,
2013-10-31 04:19:00,45.2,40.0,30.12,West,269,0.0,2.0,82,0.00,,,0.00,0,weatherlink.com 1.10,2013-10-31 11:19:00,
2013-10-31 04:34:00,45.9,40.0,30.12,West,269,0.0,1.0,80,0.00,,,0.00,0,weatherlink.com 1.10,2013-10-31 11:34:00,
2013-10-31 04:49:00,46.4,40.0,30.13,West,269,0.0,2.0,79,0.00,,,0.00,0,weatherlink.com 1.10,2013-10-31 11:49:00,
2013-10-31 05:04:00,46.3,40.0,30.13,West,269,0.0,1.0,79,0.00,,,0.00,0,weatherlink.com 1.10,2013-10-31 12:04:00,
2013-10-31 05:19:00,46.3,40.0,30.13,West,269,0.0,2.0,79,0.00,,,0.00,0,weatherlink.com 1.10,2013-10-31 12:19:00,
2013-10-31 05:34:00,46.1,40.0,30.14,West,269,0.0,2.0,80,0.00,,,0.00,0,weatherlink.com 1.10,2013-10-31 12:34:00,
2013-10-31 05:49:00,46.0,41.0,30.14,West,269,0.0,1.0,81,0.00,,,0.00,0,weatherlink.com 1.10,2013-10-31 12:49:00,
2013-10-31 06:04:00,46.5,41.0,30.14,West,269,1.0,2.0,81,0.00,,,0.00,0,weatherlink.com 1.10,2013-10-31 13:04:00,
2013-10-31 06:19:00,47.0,41.0,30.14,West,269,0.0,1.0,81,0.00,,,0.00,0,weatherlink.com 1.10,2013-10-31 13:19:00,
2013-10-31 06:34:00,47.1,42.0,30.15,West,269,0.0,2.0,83,0.00,,,0.00,0,weatherlink.com 1.10,2013-10-31 13:34:00,
2013-10-31 06:49:00,47.5,42.0,30.14,West,269,0.0,2.0,82,0.00,,,0.00,0,weatherlink.com 1.10,2013-10-31 13:49:00,
2013-10-31 07:04:00,47.6,43.0,30.14,West,269,0.0,1.0,83,0.00,,,0.00,0,weatherlink.com 1.10,2013-10-31 14:04:00,
2013-10-31 07:19:00,47.9,43.0,30.14,West,269,0.0,2.0,83,0.00,,,0.00,0,weatherlink.com 1.10,2013-10-31 14:19:00,
2013-10-31 07:34:00,47.7,43.0,30.14,West,269,1.0,2.0,82,0.00,,,0.00,0,weatherlink.com 1.10,2013-10-31 14:34:00,
2013-10-31 07:50:00,47.2,42.0,30.15,West,269,0.0,2.0,83,0.00,,,0.00,14,weatherlink.com 1.10,2013-10-31 14:50:00,
2013-10-31 08:05:00,47.3,43.0,30.16,West,269,0.0,2.0,84,0.00,,,0.00,23,weatherlink.com 1.10,2013-10-31 15:05:00,
2013-10-31 08:20:00,47.7,43.0,30.16,West,269,0.0,2.0,84,0.00,,,0.00,30,weatherlink.com 1.10,2013-10-31 15:20:00,
2013-10-31 08:35:00,47.7,43.0,30.16,West,269,0.0,2.0,84,0.00,,,0.00,35,weatherlink.com 1.10,2013-10-31 15:35:00,
2013-10-31 08:50:00,48.9,44.0,30.17,West,269,0.0,1.0,83,0.00,,,0.00,40,weatherlink.com 1.10,2013-10-31 15:50:00,
2013-10-31 09:05:00,50.5,45.0,30.17,West,269,1.0,1.0,80,0.00,,,0.00,42,weatherlink.com 1.10,2013-10-31 16:05:00,
2013-10-31 09:20:00,52.1,45.0,30.17,West,269,0.0,1.0,77,0.00,,,0.00,46,weatherlink.com 1.10,2013-10-31 16:20:00,
2013-10-31 09:35:00,53.7,45.0,30.17,West,269,0.0,1.0,73,0.00,,,0.00,47,weatherlink.com 1.10,2013-10-31 16:35:00,
2013-10-31 09:50:00,55.2,46.0,30.17,West,269,0.0,1.0,70,0.00,,,0.00,327,weatherlink.com 1.10,2013-10-31 16:50:00,
2013-10-31 10:05:00,56.6,46.0,30.17,West,269,0.0,1.0,67,0.00,,,0.00,116,weatherlink.com 1.10,2013-10-31 17:05:00,
2013-10-31 10:20:00,59.0,46.0,30.16,West,269,0.0,2.0,63,0.00,,,0.00,62,weatherlink.com 1.10,2013-10-31 17:20:00,
2013-10-31 10:35:00,60.4,46.0,30.16,West,265,0.0,2.0,60,0.00,,,0.00,86,weatherlink.com 1.10,2013-10-31 17:35:00,
2013-10-31 10:51:00,60.8,46.0,30.16,West,265,2.0,2.0,59,0.00,,,0.00,93,weatherlink.com 1.10,2013-10-31 17:51:00,
2013-10-31 11:05:00,61.3,46.0,30.16,West,265,0.0,2.0,58,0.00,,,0.00,123,weatherlink.com 1.10,2013-10-31 18:05:00,
2013-10-31 11:20:00,62.1,46.0,30.16,West,265,0.0,2.0,56,0.00,,,0.00,74,weatherlink.com 1.10,2013-10-31 18:20:00,
2013-10-31 11:50:00,63.6,46.0,30.15,SW,215,0.0,1.0,53,0.00,,,0.00,568,weatherlink.com 1.10,2013-10-31 18:50:00,
2013-10-31 12:06:00,66.3,46.0,30.15,ESE,119,0.0,1.0,48,0.00,,,0.00,606,weatherlink.com 1.10,2013-10-31 19:06:00,
2013-10-31 12:21:00,67.6,47.0,30.15,SE,136,0.0,3.0,47,0.00,,,0.00,612,weatherlink.com 1.10,2013-10-31 19:21:00,
2013-10-31 12:40:00,68.9,45.0,30.14,SE,126,0.0,1.0,43,0.00,,,0.00,584,weatherlink.com 1.10,2013-10-31 19:40:00,
2013-10-31 12:51:00,69.0,45.0,30.14,ESE,117,0.0,3.0,42,0.00,,,0.00,120,weatherlink.com 1.10,2013-10-31 19:51:00,
2013-10-31 13:06:00,68.8,44.0,30.13,SSE,154,0.0,2.0,41,0.00,,,0.00,49,weatherlink.com 1.10,2013-10-31 20:06:00,
2013-10-31 13:21:00,68.8,43.0,30.12,SE,144,0.0,2.0,40,0.00,,,0.00,35,weatherlink.com 1.10,2013-10-31 20:21:00,
2013-10-31 13:36:00,69.0,44.0,30.11,ESE,121,0.0,3.0,40,0.00,,,0.00,33,weatherlink.com 1.10,2013-10-31 20:36:00,
2013-10-31 13:51:00,69.3,44.0,30.11,SE,146,0.0,2.0,40,0.00,,,0.00,114,weatherlink.com 1.10,2013-10-31 20:51:00,
2013-10-31 14:06:00,69.5,44.0,30.11,East,96,0.0,2.0,40,0.00,,,0.00,62,weatherlink.com 1.10,2013-10-31 21:06:00,
2013-10-31 14:36:00,69.4,44.0,30.10,SSE,153,0.0,4.0,40,0.00,,,0.00,26,weatherlink.com 1.10,2013-10-31 21:36:00,
2013-10-31 14:51:00,69.2,44.0,30.09,South,183,0.0,1.0,40,0.00,,,0.00,25,weatherlink.com 1.10,2013-10-31 21:51:00,
2013-10-31 15:07:00,69.1,45.0,30.09,South,170,0.0,2.0,42,0.00,,,0.00,23,weatherlink.com 1.10,2013-10-31 22:07:00,
2013-10-31 15:21:00,69.4,45.0,30.08,SE,146,0.0,3.0,42,0.00,,,0.00,23,weatherlink.com 1.10,2013-10-31 22:21:00,
2013-10-31 15:36:00,69.3,45.0,30.08,SE,132,0.0,1.0,42,0.00,,,0.00,21,weatherlink.com 1.10,2013-10-31 22:36:00,
2013-10-31 15:51:00,68.8,45.0,30.08,SE,132,0.0,0.0,43,0.00,,,0.00,21,weatherlink.com 1.10,2013-10-31 22:51:00,
2013-10-31 16:06:00,68.7,45.0,30.07,SE,132,0.0,1.0,42,0.00,,,0.00,21,weatherlink.com 1.10,2013-10-31 23:06:00,
2013-10-31 16:21:00,68.5,44.0,30.07,South,185,0.0,2.0,42,0.00,,,0.00,19,weatherlink.com 1.10,2013-10-31 23:21:00,
2013-10-31 16:36:00,67.8,45.0,30.07,SSW,202,0.0,2.0,44,0.00,,,0.00,16,weatherlink.com 1.10,2013-10-31 23:36:00,
2013-10-31 16:51:00,67.1,44.0,30.07,SE,137,0.0,0.0,44,0.00,,,0.00,16,weatherlink.com 1.10,2013-10-31 23:51:00,
2013-10-31 17:06:00,66.7,45.0,30.07,SE,144,0.0,0.0,45,0.00,,,0.00,14,weatherlink.com 1.10,2013-11-01 00:06:00,
2013-10-31 17:21:00,66.8,45.0,30.07,SE,144,0.0,0.0,45,0.00,,,0.00,12,weatherlink.com 1.10,2013-11-01 00:21:00,
2013-10-31 17:36:00,66.7,45.0,30.07,SE,144,0.0,1.0,45,0.00,,,0.00,9,weatherlink.com 1.10,2013-11-01 00:36:00,
2013-10-31 17:51:00,66.5,45.0,30.07,SE,144,0.0,0.0,46,0.00,,,0.00,7,weatherlink.com 1.10,2013-11-01 00:51:00,
2013-10-31 18:06:00,66.1,46.0,30.07,SE,144,0.0,0.0,48,0.00,,,0.00,0,weatherlink.com 1.10,2013-11-01 01:06:00,
2013-10-31 18:21:00,65.3,45.0,30.07,SE,144,0.0,1.0,49,0.00,,,0.00,0,weatherlink.com 1.10,2013-11-01 01:21:00,
2013-10-31 18:36:00,64.5,46.0,30.08,SE,144,0.0,1.0,51,0.00,,,0.00,0,weatherlink.com 1.10,2013-11-01 01:36:00,
2013-10-31 18:51:00,63.6,45.0,30.08,SE,144,0.0,1.0,52,0.00,,,0.00,0,weatherlink.com 1.10,2013-11-01 01:51:00,
2013-10-31 19:06:00,62.6,45.0,30.08,SE,144,0.0,1.0,53,0.00,,,0.00,0,weatherlink.com 1.10,2013-11-01 02:06:00,
2013-10-31 19:21:00,62.0,45.0,30.08,SW,234,1.0,3.0,55,0.00,,,0.00,0,weatherlink.com 1.10,2013-11-01 02:21:00,
2013-10-31 19:36:00,60.6,46.0,30.09,SW,234,1.0,2.0,58,0.00,,,0.00,0,weatherlink.com 1.10,2013-11-01 02:36:00,
2013-10-31 19:51:00,59.3,46.0,30.09,SW,234,0.0,2.0,61,0.00,,,0.00,0,weatherlink.com 1.10,2013-11-01 02:51:00,
2013-10-31 20:06:00,58.7,45.0,30.09,SW,235,0.0,3.0,61,0.00,,,0.00,0,weatherlink.com 1.10,2013-11-01 03:06:00,
2013-10-31 20:21:00,57.6,45.0,30.09,WSW,246,1.0,3.0,63,0.00,,,0.00,0,weatherlink.com 1.10,2013-11-01 03:21:00,
2013-10-31 20:36:00,56.6,45.0,30.09,WSW,246,0.0,2.0,65,0.00,,,0.00,0,weatherlink.com 1.10,2013-11-01 03:36:00,
2013-10-31 20:51:00,56.4,45.0,30.09,WSW,246,0.0,2.0,66,0.00,,,0.00,0,weatherlink.com 1.10,2013-11-01 03:51:00,
2013-10-31 21:06:00,56.0,45.0,30.09,WSW,246,1.0,2.0,66,0.00,,,0.00,0,weatherlink.com 1.10,2013-11-01 04:06:00,
2013-10-31 21:21:00,56.2,45.0,30.09,WSW,246,2.0,2.0,66,0.00,,,0.00,0,weatherlink.com 1.10,2013-11-01 04:21:00,
2013-10-31 21:36:00,57.0,45.0,30.09,WSW,246,0.0,2.0,64,0.00,,,0.00,0,weatherlink.com 1.10,2013-11-01 04:36:00,
2013-10-31 21:51:00,57.9,45.0,30.09,WSW,246,1.0,2.0,63,0.00,,,0.00,0,weatherlink.com 1.10,2013-11-01 04:51:00,
2013-10-31 22:06:00,56.5,44.0,30.10,WSW,248,1.0,2.0,64,0.00,,,0.00,0,weatherlink.com 1.10,2013-11-01 05:06:00,
2013-10-31 22:21:00,56.6,45.0,30.10,WSW,248,0.0,2.0,65,0.00,,,0.00,0,weatherlink.com 1.10,2013-11-01 05:21:00,
2013-10-31 22:36:00,56.2,44.0,30.10,WSW,250,1.0,3.0,65,0.00,,,0.00,0,weatherlink.com 1.10,2013-11-01 05:36:00,
2013-10-31 22:51:00,54.9,44.0,30.10,WSW,250,2.0,2.0,67,0.00,,,0.00,0,weatherlink.com 1.10,2013-11-01 05:51:00,
2013-10-31 23:06:00,53.7,44.0,30.10,WSW,250,2.0,3.0,70,0.00,,,0.00,0,weatherlink.com 1.10,2013-11-01 06:06:00,
2013-10-31 23:21:00,53.2,44.0,30.10,WSW,251,0.0,2.0,71,0.00,,,0.00,0,weatherlink.com 1.10,2013-11-01 06:21:00,
2013-10-31 23:36:00,53.0,44.0,30.10,WSW,251,0.0,1.0,72,0.00,,,0.00,0,weatherlink.com 1.10,2013-11-01 06:36:00,
2013-10-31 23:51:00,52.7,44.0,30.10,WSW,251,0.0,1.0,72,0.00,,,0.00,0,weatherlink.com 1.10,2013-11-01 06:51:00,